Saint-Raphael, Canada
Current Conditions -  °F | °C
As of 11:00 PM on Wednesday 22 Oct 2014 (Local Time) from CYQB Reporting Station
Few Clouds Few Clouds  
Wind Chill: 38°   Ceiling: Unl
Heat Index: 45°   Visibility: 15mi
Dew Point: 32°   Wind: 15mph
Humidity: 61%   Direction: 60°ENE
Pressure: 30.27"   Gusts: NA
Location:  46.78°N, 70.75°W
Report Text: CYQB 230300Z 06013KT 15SM FEW220 07/M00 A3027 RMK CI1 CI TR SLP253
Loading
Personal Weather Stations






























Interactive Weather Map
Tropical Storm Tracking
New forecast layout! Learn more

10-Day Weather Forecast

Advertisements
Track Severe Weather on mobile